sensor_id;sensor_type;location;lat;lon;timestamp;P1;durP1;ratioP1;P2;durP2;ratioP2
58990;SDS011;44781;53.444;14.476;2023-04-01T00:01:00;10.60;;;7.10;;
58990;SDS011;44781;53.444;14.476;2023-04-01T00:03:28;11.00;;;7.30;;
58990;SDS011;44781;53.444;14.476;2023-04-01T00:05:56;11.50;;;7.70;;
58990;SDS011;44781;53.444;14.476;2023-04-01T00:08:25;10.50;;;7.10;;
58990;SDS011;44781;53.444;14.476;2023-04-01T00:10:53;12.20;;;8.00;;
58990;SDS011;44781;53.444;14.476;2023-04-01T00:13:21;14.30;;;9.30;;
58990;SDS011;44781;53.444;14.476;2023-04-01T00:15:49;17.00;;;10.90;;
58990;SDS011;44781;53.444;14.476;2023-04-01T00:18:17;18.70;;;12.40;;
58990;SDS011;44781;53.444;14.476;2023-04-01T00:20:45;18.90;;;11.30;;
58990;SDS011;44781;53.444;14.476;2023-04-01T00:23:14;19.40;;;11.30;;
58990;SDS011;44781;53.444;14.476;2023-04-01T00:25:43;13.70;;;9.10;;
58990;SDS011;44781;53.444;14.476;2023-04-01T00:28:21;12.80;;;8.40;;
58990;SDS011;44781;53.444;14.476;2023-04-01T00:30:49;11.60;;;8.10;;
58990;SDS011;44781;53.444;14.476;2023-04-01T00:33:16;10.70;;;7.80;;
58990;SDS011;44781;53.444;14.476;2023-04-01T00:35:44;10.10;;;7.00;;
58990;SDS011;44781;53.444;14.476;2023-04-01T00:38:12;11.40;;;7.50;;
58990;SDS011;44781;53.444;14.476;2023-04-01T00:40:42;10.80;;;7.40;;
58990;SDS011;44781;53.444;14.476;2023-04-01T00:43:15;11.10;;;7.00;;
58990;SDS011;44781;53.444;14.476;2023-04-01T00:45:46;13.30;;;9.70;;
58990;SDS011;44781;53.444;14.476;2023-04-01T00:50:56;16.60;;;12.50;;
58990;SDS011;44781;53.444;14.476;2023-04-01T00:53:58;13.90;;;10.50;;
58990;SDS011;44781;53.444;14.476;2023-04-01T00:57:39;12.40;;;9.00;;
58990;SDS011;44781;53.444;14.476;2023-04-01T01:01:15;13.90;;;9.30;;
58990;SDS011;44781;53.444;14.476;2023-04-01T01:04:59;10.30;;;6.80;;
58990;SDS011;44781;53.444;14.476;2023-04-01T01:08:33;9.20;;;6.10;;
58990;SDS011;44781;53.444;14.476;2023-04-01T01:11:12;9.10;;;5.60;;
58990;SDS011;44781;53.444;14.476;2023-04-01T01:14:39;10.50;;;6.40;;
58990;SDS011;44781;53.444;14.476;2023-04-01T01:18:03;10.50;;;6.60;;
58990;SDS011;44781;53.444;14.476;2023-04-01T01:27:58;9.90;;;6.40;;
58990;SDS011;44781;53.444;14.476;2023-04-01T01:35:53;10.30;;;6.30;;
58990;SDS011;44781;53.444;14.476;2023-04-01T01:39:25;9.00;;;5.00;;
58990;SDS011;44781;53.444;14.476;2023-04-01T01:42:47;11.10;;;5.40;;
58990;SDS011;44781;53.444;14.476;2023-04-01T01:46:05;10.00;;;5.60;;
58990;SDS011;44781;53.444;14.476;2023-04-01T01:49:25;9.30;;;5.00;;
58990;SDS011;44781;53.444;14.476;2023-04-01T01:52:00;8.00;;;4.50;;
58990;SDS011;44781;53.444;14.476;2023-04-01T01:54:57;8.60;;;5.30;;
58990;SDS011;44781;53.444;14.476;2023-04-01T02:01:10;7.10;;;3.80;;
58990;SDS011;44781;53.444;14.476;2023-04-01T02:04:05;6.80;;;3.40;;
58990;SDS011;44781;53.444;14.476;2023-04-01T02:06:56;6.20;;;2.90;;
58990;SDS011;44781;53.444;14.476;2023-04-01T02:10:05;3.80;;;2.30;;
58990;SDS011;44781;53.444;14.476;2023-04-01T02:13:04;3.90;;;2.00;;
58990;SDS011;44781;53.444;14.476;2023-04-01T02:23:23;4.60;;;2.30;;
58990;SDS011;44781;53.444;14.476;2023-04-01T02:26:52;4.70;;;2.40;;
58990;SDS011;44781;53.444;14.476;2023-04-01T02:29:59;5.50;;;2.60;;
58990;SDS011;44781;53.444;14.476;2023-04-01T02:33:21;5.80;;;2.80;;
58990;SDS011;44781;53.444;14.476;2023-04-01T02:36:59;4.80;;;2.60;;
58990;SDS011;44781;53.444;14.476;2023-04-01T02:40:13;6.20;;;3.20;;
58990;SDS011;44781;53.444;14.476;2023-04-01T02:43:42;6.40;;;2.90;;
58990;SDS011;44781;53.444;14.476;2023-04-01T02:46:54;5.70;;;3.10;;
58990;SDS011;44781;53.444;14.476;2023-04-01T02:49:47;6.50;;;3.40;;
58990;SDS011;44781;53.444;14.476;2023-04-01T02:53:19;5.20;;;2.60;;
58990;SDS011;44781;53.444;14.476;2023-04-01T02:56:18;6.20;;;2.90;;
58990;SDS011;44781;53.444;14.476;2023-04-01T02:59:32;5.20;;;3.10;;
58990;SDS011;44781;53.444;14.476;2023-04-01T03:02:32;5.80;;;2.70;;
58990;SDS011;44781;53.444;14.476;2023-04-01T03:05:04;6.00;;;2.90;;
58990;SDS011;44781;53.444;14.476;2023-04-01T03:07:34;5.80;;;2.90;;
58990;SDS011;44781;53.444;14.476;2023-04-01T03:10:02;6.90;;;3.50;;
58990;SDS011;44781;53.444;14.476;2023-04-01T03:12:50;5.60;;;2.90;;
58990;SDS011;44781;53.444;14.476;2023-04-01T03:15:45;5.90;;;3.10;;
58990;SDS011;44781;53.444;14.476;2023-04-01T03:18:54;6.50;;;3.30;;
58990;SDS011;44781;53.444;14.476;2023-04-01T03:21:34;6.00;;;3.10;;
58990;SDS011;44781;53.444;14.476;2023-04-01T03:24:04;5.90;;;3.10;;
58990;SDS011;44781;53.444;14.476;2023-04-01T03:26:45;6.00;;;3.20;;
58990;SDS011;44781;53.444;14.476;2023-04-01T03:29:39;6.20;;;3.10;;
58990;SDS011;44781;53.444;14.476;2023-04-01T03:32:19;6.20;;;3.40;;
58990;SDS011;44781;53.444;14.476;2023-04-01T03:34:57;6.40;;;3.40;;
58990;SDS011;44781;53.444;14.476;2023-04-01T03:38:04;7.90;;;3.40;;
58990;SDS011;44781;53.444;14.476;2023-04-01T03:40:45;5.80;;;3.20;;
58990;SDS011;44781;53.444;14.476;2023-04-01T03:43:54;6.00;;;3.20;;
58990;SDS011;44781;53.444;14.476;2023-04-01T03:46:47;6.50;;;3.50;;
58990;SDS011;44781;53.444;14.476;2023-04-01T03:49:36;5.10;;;2.90;;
58990;SDS011;44781;53.444;14.476;2023-04-01T03:52:12;5.90;;;3.00;;
58990;SDS011;44781;53.444;14.476;2023-04-01T03:54:47;6.10;;;3.00;;
58990;SDS011;44781;53.444;14.476;2023-04-01T03:57:24;5.70;;;2.90;;
58990;SDS011;44781;53.444;14.476;2023-04-01T04:00:13;6.00;;;3.10;;
58990;SDS011;44781;53.444;14.476;2023-04-01T04:03:20;7.20;;;3.20;;
58990;SDS011;44781;53.444;14.476;2023-04-01T04:07:10;6.30;;;3.30;;
58990;SDS011;44781;53.444;14.476;2023-04-01T04:10:06;6.20;;;3.20;;
58990;SDS011;44781;53.444;14.476;2023-04-01T04:13:34;5.50;;;3.20;;
58990;SDS011;44781;53.444;14.476;2023-04-01T04:16:56;5.40;;;3.20;;
58990;SDS011;44781;53.444;14.476;2023-04-01T04:19:58;6.00;;;3.20;;
58990;SDS011;44781;53.444;14.476;2023-04-01T04:22:34;6.30;;;3.00;;
58990;SDS011;44781;53.444;14.476;2023-04-01T04:25:28;6.10;;;2.80;;
58990;SDS011;44781;53.444;14.476;2023-04-01T04:28:28;5.10;;;2.60;;
58990;SDS011;44781;53.444;14.476;2023-04-01T04:31:01;4.90;;;2.70;;
58990;SDS011;44781;53.444;14.476;2023-04-01T04:33:48;5.90;;;2.70;;
58990;SDS011;44781;53.444;14.476;2023-04-01T04:37:15;5.50;;;3.00;;
58990;SDS011;44781;53.444;14.476;2023-04-01T04:41:07;5.50;;;3.00;;
58990;SDS011;44781;53.444;14.476;2023-04-01T04:44:16;6.20;;;3.10;;
58990;SDS011;44781;53.444;14.476;2023-04-01T04:47:11;6.60;;;3.20;;
58990;SDS011;44781;53.444;14.476;2023-04-01T04:50:11;5.60;;;2.90;;
58990;SDS011;44781;53.444;14.476;2023-04-01T04:53:02;5.50;;;2.90;;
58990;SDS011;44781;53.444;14.476;2023-04-01T04:56:10;6.70;;;2.70;;
58990;SDS011;44781;53.444;14.476;2023-04-01T04:59:09;5.80;;;3.00;;
58990;SDS011;44781;53.444;14.476;2023-04-01T05:02:05;6.50;;;2.90;;
58990;SDS011;44781;53.444;14.476;2023-04-01T05:05:00;6.40;;;2.90;;
58990;SDS011;44781;53.444;14.476;2023-04-01T05:07:34;5.90;;;3.30;;
58990;SDS011;44781;53.444;14.476;2023-04-01T05:10:12;4.70;;;2.50;;
58990;SDS011;44781;53.444;14.476;2023-04-01T05:12:39;5.70;;;2.90;;
58990;SDS011;44781;53.444;14.476;2023-04-01T05:15:11;5.50;;;2.70;;
58990;SDS011;44781;53.444;14.476;2023-04-01T05:17:39;5.00;;;2.70;;
58990;SDS011;44781;53.444;14.476;2023-04-01T05:20:07;5.90;;;2.80;;
58990;SDS011;44781;53.444;14.476;2023-04-01T05:23:08;4.80;;;2.90;;
58990;SDS011;44781;53.444;14.476;2023-04-01T05:26:13;7.40;;;3.10;;
58990;SDS011;44781;53.444;14.476;2023-04-01T05:28:54;5.30;;;2.70;;
58990;SDS011;44781;53.444;14.476;2023-04-01T05:31:26;5.80;;;2.80;;
58990;SDS011;44781;53.444;14.476;2023-04-01T05:33:53;4.70;;;2.40;;
58990;SDS011;44781;53.444;14.476;2023-04-01T05:36:26;6.30;;;2.50;;
58990;SDS011;44781;53.444;14.476;2023-04-01T05:38:59;6.10;;;2.80;;
58990;SDS011;44781;53.444;14.476;2023-04-01T05:41:28;5.30;;;2.10;;
58990;SDS011;44781;53.444;14.476;2023-04-01T05:44:10;6.20;;;2.80;;
58990;SDS011;44781;53.444;14.476;2023-04-01T05:46:41;6.00;;;2.60;;
58990;SDS011;44781;53.444;14.476;2023-04-01T05:49:21;6.00;;;2.90;;
58990;SDS011;44781;53.444;14.476;2023-04-01T05:51:49;6.40;;;3.10;;
58990;SDS011;44781;53.444;14.476;2023-04-01T05:56:51;5.40;;;2.60;;
58990;SDS011;44781;53.444;14.476;2023-04-01T05:59:42;4.80;;;2.40;;
58990;SDS011;44781;53.444;14.476;2023-04-01T06:02:36;4.90;;;2.50;;
58990;SDS011;44781;53.444;14.476;2023-04-01T06:05:21;5.90;;;2.80;;
58990;SDS011;44781;53.444;14.476;2023-04-01T06:08:08;5.40;;;2.30;;
58990;SDS011;44781;53.444;14.476;2023-04-01T06:10:45;7.00;;;2.60;;
58990;SDS011;44781;53.444;14.476;2023-04-01T07:10:35;6.50;;;3.30;;
58990;SDS011;44781;53.444;14.476;2023-04-01T07:22:20;5.80;;;2.50;;
58990;SDS011;44781;53.444;14.476;2023-04-01T07:29:21;6.90;;;3.80;;
58990;SDS011;44781;53.444;14.476;2023-04-01T07:52:41;6.60;;;3.60;;
58990;SDS011;44781;53.444;14.476;2023-04-01T08:25:30;7.40;;;3.10;;
58990;SDS011;44781;53.444;14.476;2023-04-01T08:29:07;7.50;;;3.40;;
58990;SDS011;44781;53.444;14.476;2023-04-01T08:45:57;5.10;;;2.80;;
58990;SDS011;44781;53.444;14.476;2023-04-01T09:47:41;5.70;;;3.10;;
58990;SDS011;44781;53.444;14.476;2023-04-01T11:44:32;7.10;;;2.80;;
58990;SDS011;44781;53.444;14.476;2023-04-01T11:57:12;6.00;;;2.50;;
58990;SDS011;44781;53.444;14.476;2023-04-01T12:04:14;5.70;;;2.90;;
58990;SDS011;44781;53.444;14.476;2023-04-01T12:13:37;5.50;;;2.20;;
58990;SDS011;44781;53.444;14.476;2023-04-01T12:43:29;7.00;;;3.10;;
58990;SDS011;44781;53.444;14.476;2023-04-01T13:06:07;6.20;;;2.60;;
58990;SDS011;44781;53.444;14.476;2023-04-01T13:09:12;9.30;;;3.50;;
58990;SDS011;44781;53.444;14.476;2023-04-01T13:17:11;6.60;;;3.00;;
58990;SDS011;44781;53.444;14.476;2023-04-01T13:20:06;5.70;;;2.40;;
58990;SDS011;44781;53.444;14.476;2023-04-01T13:28:25;5.80;;;2.30;;
58990;SDS011;44781;53.444;14.476;2023-04-01T13:31:02;4.20;;;2.20;;
58990;SDS011;44781;53.444;14.476;2023-04-01T13:42:16;4.80;;;1.80;;
58990;SDS011;44781;53.444;14.476;2023-04-01T14:18:32;5.70;;;2.80;;
58990;SDS011;44781;53.444;14.476;2023-04-01T14:22:14;6.80;;;2.90;;
58990;SDS011;44781;53.444;14.476;2023-04-01T14:25:43;7.80;;;3.20;;
58990;SDS011;44781;53.444;14.476;2023-04-01T14:51:36;8.40;;;3.50;;
58990;SDS011;44781;53.444;14.476;2023-04-01T14:54:22;7.80;;;3.00;;
58990;SDS011;44781;53.444;14.476;2023-04-01T15:00:09;8.10;;;3.20;;
58990;SDS011;44781;53.444;14.476;2023-04-01T15:02:58;8.50;;;3.60;;
58990;SDS011;44781;53.444;14.476;2023-04-01T15:06:24;6.70;;;3.10;;
58990;SDS011;44781;53.444;14.476;2023-04-01T15:36:36;8.50;;;4.00;;
58990;SDS011;44781;53.444;14.476;2023-04-01T15:54:23;11.50;;;4.10;;
58990;SDS011;44781;53.444;14.476;2023-04-01T16:00:06;7.70;;;3.40;;
58990;SDS011;44781;53.444;14.476;2023-04-01T16:21:00;7.20;;;3.40;;
58990;SDS011;44781;53.444;14.476;2023-04-01T16:23:49;8.90;;;3.50;;
58990;SDS011;44781;53.444;14.476;2023-04-01T16:26:49;7.60;;;3.10;;
58990;SDS011;44781;53.444;14.476;2023-04-01T16:40:24;7.30;;;2.90;;
58990;SDS011;44781;53.444;14.476;2023-04-01T16:43:28;6.90;;;2.90;;
58990;SDS011;44781;53.444;14.476;2023-04-01T16:49:59;5.50;;;2.40;;
58990;SDS011;44781;53.444;14.476;2023-04-01T16:56:40;6.90;;;2.60;;
58990;SDS011;44781;53.444;14.476;2023-04-01T17:00:35;6.00;;;2.60;;
58990;SDS011;44781;53.444;14.476;2023-04-01T17:03:12;8.60;;;3.40;;
58990;SDS011;44781;53.444;14.476;2023-04-01T17:24:51;5.30;;;2.50;;
58990;SDS011;44781;53.444;14.476;2023-04-01T17:28:35;7.10;;;2.90;;
58990;SDS011;44781;53.444;14.476;2023-04-01T17:32:19;7.60;;;3.40;;
58990;SDS011;44781;53.444;14.476;2023-04-01T18:16:14;9.60;;;5.90;;
58990;SDS011;44781;53.444;14.476;2023-04-01T23:29:51;4.60;;;2.00;;
58990;SDS011;44781;53.444;14.476;2023-04-01T23:47:44;6.20;;;1.60;;
58990;SDS011;44781;53.444;14.476;2023-04-01T23:50:24;5.70;;;1.80;;
58990;SDS011;44781;53.444;14.476;2023-04-01T23:53:36;4.70;;;1.50;;
